<?xml version="1.0" encoding="utf-8"?>
<gpx xmlns:xsi="http://www.w3.org/2001/XMLSchema-instance" xmlns:xsd="http://www.w3.org/2001/XMLSchema" version="1.1" creator="Shapelink.com" xmlns="http://www.topografix.com/GPX/1/1" xmlns:gpxtpx="http://www.garmin.com/xmlschemas/TrackPointExtension/v1">
  <metadata>
    <name>Övrigt 4.63 km, 2019-05-18</name>
    <desc></desc>
    <author><name>Marian Moron</name></author> 
    <time>2019-05-18T13:55:19Z</time>
  </metadata>
  <trk>
    <name>Övrigt 4.63 km, 2019-05-18</name>
    <trkseg>
      <trkpt lat="51.222235056881" lon="4.481133641113">
        <ele>0</ele>
        <time>2019-05-18T13:55:19Z</time>
      </trkpt>
      <trkpt lat="51.222234721605" lon="4.481046385534">
        <ele>0</ele>
        <time>2019-05-18T13:55:22Z</time>
      </trkpt>
      <trkpt lat="51.222154590641" lon="4.480953094987">
        <ele>0</ele>
        <time>2019-05-18T13:55:29Z</time>
      </trkpt>
      <trkpt lat="51.222025844657" lon="4.480833652912">
        <ele>0</ele>
        <time>2019-05-18T13:55:40Z</time>
      </trkpt>
      <trkpt lat="51.221727616655" lon="4.48028564429">
        <ele>0</ele>
        <time>2019-05-18T13:56:13Z</time>
      </trkpt>
      <trkpt lat="51.22166852426" lon="4.480113228607">
        <ele>0</ele>
        <time>2019-05-18T13:56:24Z</time>
      </trkpt>
      <trkpt lat="51.221576407179" lon="4.479997726025">
        <ele>0</ele>
        <time>2019-05-18T13:56:33Z</time>
      </trkpt>
      <trkpt lat="51.221139710189" lon="4.480225210791">
        <ele>0</ele>
        <time>2019-05-18T13:57:05Z</time>
      </trkpt>
      <trkpt lat="51.221069637505" lon="4.480256810554">
        <ele>0</ele>
        <time>2019-05-18T13:57:12Z</time>
      </trkpt>
      <trkpt lat="51.220640651863" lon="4.480485384967">
        <ele>3.6</ele>
        <time>2019-05-18T13:57:47Z</time>
      </trkpt>
      <trkpt lat="51.220259610689" lon="4.480641120669">
        <ele>8.6</ele>
        <time>2019-05-18T13:58:21Z</time>
      </trkpt>
      <trkpt lat="51.219806233718" lon="4.480719994348">
        <ele>21.8</ele>
        <time>2019-05-18T13:58:50Z</time>
      </trkpt>
      <trkpt lat="51.219729874609" lon="4.481075470727">
        <ele>10.6</ele>
        <time>2019-05-18T13:59:34Z</time>
      </trkpt>
      <trkpt lat="51.219739178518" lon="4.481054348339">
        <ele>10.6</ele>
        <time>2019-05-18T13:59:52Z</time>
      </trkpt>
      <trkpt lat="51.219721241252" lon="4.48106516099">
        <ele>10.2</ele>
        <time>2019-05-18T14:00:10Z</time>
      </trkpt>
      <trkpt lat="51.219655359518" lon="4.481126097403">
        <ele>10</ele>
        <time>2019-05-18T14:00:17Z</time>
      </trkpt>
      <trkpt lat="51.219183626186" lon="4.481194577526">
        <ele>5.4</ele>
        <time>2019-05-18T14:00:57Z</time>
      </trkpt>
      <trkpt lat="51.219064351749" lon="4.481242102899">
        <ele>6.2</ele>
        <time>2019-05-18T14:01:05Z</time>
      </trkpt>
      <trkpt lat="51.218725806808" lon="4.481358862766">
        <ele>2.6</ele>
        <time>2019-05-18T14:01:33Z</time>
      </trkpt>
      <trkpt lat="51.218303107591" lon="4.481627670299">
        <ele>1.8</ele>
        <time>2019-05-18T14:02:07Z</time>
      </trkpt>
      <trkpt lat="51.217870936827" lon="4.481813329384">
        <ele>5</ele>
        <time>2019-05-18T14:02:46Z</time>
      </trkpt>
      <trkpt lat="51.217711093994" lon="4.481919192781">
        <ele>0</ele>
        <time>2019-05-18T14:03:07Z</time>
      </trkpt>
      <trkpt lat="51.217281689257" lon="4.482138966199">
        <ele>0</ele>
        <time>2019-05-18T14:03:47Z</time>
      </trkpt>
      <trkpt lat="51.216953202596" lon="4.482254804057">
        <ele>0</ele>
        <time>2019-05-18T14:04:14Z</time>
      </trkpt>
      <trkpt lat="51.216507369335" lon="4.482338455419">
        <ele>0</ele>
        <time>2019-05-18T14:04:51Z</time>
      </trkpt>
      <trkpt lat="51.216053992364" lon="4.482394278873">
        <ele>0</ele>
        <time>2019-05-18T14:05:29Z</time>
      </trkpt>
      <trkpt lat="51.215596759719" lon="4.482328648596">
        <ele>0</ele>
        <time>2019-05-18T14:06:08Z</time>
      </trkpt>
      <trkpt lat="51.215575804969" lon="4.482345999129">
        <ele>0</ele>
        <time>2019-05-18T14:06:09Z</time>
      </trkpt>
      <trkpt lat="51.215558789712" lon="4.482369133173">
        <ele>0</ele>
        <time>2019-05-18T14:06:12Z</time>
      </trkpt>
      <trkpt lat="51.215538589333" lon="4.482469464516">
        <ele>0</ele>
        <time>2019-05-18T14:06:19Z</time>
      </trkpt>
      <trkpt lat="51.21556566287" lon="4.482746905406">
        <ele>0</ele>
        <time>2019-05-18T14:06:40Z</time>
      </trkpt>
      <trkpt lat="51.215580834109" lon="4.483057370982">
        <ele>0</ele>
        <time>2019-05-18T14:07:01Z</time>
      </trkpt>
      <trkpt lat="51.215590305656" lon="4.483785255178">
        <ele>0</ele>
        <time>2019-05-18T14:07:52Z</time>
      </trkpt>
      <trkpt lat="51.215595418615" lon="4.483926993107">
        <ele>0</ele>
        <time>2019-05-18T14:08:02Z</time>
      </trkpt>
      <trkpt lat="51.215596592081" lon="4.483962113268">
        <ele>0</ele>
        <time>2019-05-18T14:08:05Z</time>
      </trkpt>
      <trkpt lat="51.21561427789" lon="4.484179204478">
        <ele>0.8</ele>
        <time>2019-05-18T14:08:21Z</time>
      </trkpt>
      <trkpt lat="51.21563104169" lon="4.484621684979">
        <ele>0.6</ele>
        <time>2019-05-18T14:08:53Z</time>
      </trkpt>
      <trkpt lat="51.215534566021" lon="4.485234485688">
        <ele>0</ele>
        <time>2019-05-18T14:09:42Z</time>
      </trkpt>
      <trkpt lat="51.215437838895" lon="4.485350658822">
        <ele>0</ele>
        <time>2019-05-18T14:10:05Z</time>
      </trkpt>
      <trkpt lat="51.215358043207" lon="4.485448475595">
        <ele>0</ele>
        <time>2019-05-18T14:12:20Z</time>
      </trkpt>
      <trkpt lat="51.214914975973" lon="4.484739618312">
        <ele>0</ele>
        <time>2019-05-18T14:21:50Z</time>
      </trkpt>
      <trkpt lat="51.214908018996" lon="4.484924103931">
        <ele>0</ele>
        <time>2019-05-18T14:21:56Z</time>
      </trkpt>
      <trkpt lat="51.214793270785" lon="4.484829639918">
        <ele>0</ele>
        <time>2019-05-18T14:22:11Z</time>
      </trkpt>
      <trkpt lat="51.214729568345" lon="4.4844338466">
        <ele>0</ele>
        <time>2019-05-18T14:23:02Z</time>
      </trkpt>
      <trkpt lat="51.214725293576" lon="4.484434852428">
        <ele>0</ele>
        <time>2019-05-18T14:23:10Z</time>
      </trkpt>
      <trkpt lat="51.214719761522" lon="4.484342651528">
        <ele>0</ele>
        <time>2019-05-18T14:23:18Z</time>
      </trkpt>
      <trkpt lat="51.214687658845" lon="4.484084656646">
        <ele>0</ele>
        <time>2019-05-18T14:23:53Z</time>
      </trkpt>
      <trkpt lat="51.214686150103" lon="4.48406671938">
        <ele>0</ele>
        <time>2019-05-18T14:23:55Z</time>
      </trkpt>
      <trkpt lat="51.214682797343" lon="4.483933279532">
        <ele>0</ele>
        <time>2019-05-18T14:24:29Z</time>
      </trkpt>
      <trkpt lat="51.214672906701" lon="4.483944259821">
        <ele>0</ele>
        <time>2019-05-18T14:27:08Z</time>
      </trkpt>
      <trkpt lat="51.214684054628" lon="4.48396362201">
        <ele>0</ele>
        <time>2019-05-18T14:27:10Z</time>
      </trkpt>
      <trkpt lat="51.214694029089" lon="4.484020451292">
        <ele>0</ele>
        <time>2019-05-18T14:27:18Z</time>
      </trkpt>
      <trkpt lat="51.214691849795" lon="4.484119944445">
        <ele>0</ele>
        <time>2019-05-18T14:27:26Z</time>
      </trkpt>
      <trkpt lat="51.214699309686" lon="4.484159171737">
        <ele>0</ele>
        <time>2019-05-18T14:27:29Z</time>
      </trkpt>
      <trkpt lat="51.214678187298" lon="4.484257407605">
        <ele>0</ele>
        <time>2019-05-18T14:28:06Z</time>
      </trkpt>
      <trkpt lat="51.214686150103" lon="4.484211977707">
        <ele>0</ele>
        <time>2019-05-18T14:32:30Z</time>
      </trkpt>
      <trkpt lat="51.214711463441" lon="4.48426872317">
        <ele>0</ele>
        <time>2019-05-18T14:32:34Z</time>
      </trkpt>
      <trkpt lat="51.214819422313" lon="4.484726626367">
        <ele>0</ele>
        <time>2019-05-18T14:33:03Z</time>
      </trkpt>
      <trkpt lat="51.214937355646" lon="4.484926450863">
        <ele>0</ele>
        <time>2019-05-18T14:33:19Z</time>
      </trkpt>
      <trkpt lat="51.215184370239" lon="4.485123341694">
        <ele>0</ele>
        <time>2019-05-18T14:33:54Z</time>
      </trkpt>
      <trkpt lat="51.215150423544" lon="4.485176147664">
        <ele>0</ele>
        <time>2019-05-18T14:33:59Z</time>
      </trkpt>
      <trkpt lat="51.215162996394" lon="4.485171034705">
        <ele>0</ele>
        <time>2019-05-18T14:34:09Z</time>
      </trkpt>
      <trkpt lat="51.21539634849" lon="4.485276730464">
        <ele>0</ele>
        <time>2019-05-18T14:34:38Z</time>
      </trkpt>
      <trkpt lat="51.215383021269" lon="4.485293578083">
        <ele>0</ele>
        <time>2019-05-18T14:36:45Z</time>
      </trkpt>
      <trkpt lat="51.215542947921" lon="4.485169274506">
        <ele>0</ele>
        <time>2019-05-18T14:37:19Z</time>
      </trkpt>
      <trkpt lat="51.215559711721" lon="4.485009096397">
        <ele>0</ele>
        <time>2019-05-18T14:37:31Z</time>
      </trkpt>
      <trkpt lat="51.215582342851" lon="4.484766691849">
        <ele>0</ele>
        <time>2019-05-18T14:37:52Z</time>
      </trkpt>
      <trkpt lat="51.215599777203" lon="4.484649177611">
        <ele>0</ele>
        <time>2019-05-18T14:38:02Z</time>
      </trkpt>
      <trkpt lat="51.215573290399" lon="4.484416663705">
        <ele>0</ele>
        <time>2019-05-18T14:38:32Z</time>
      </trkpt>
      <trkpt lat="51.215599022832" lon="4.484617745486">
        <ele>0</ele>
        <time>2019-05-18T14:38:45Z</time>
      </trkpt>
      <trkpt lat="51.215603968153" lon="4.484668623619">
        <ele>0</ele>
        <time>2019-05-18T14:38:49Z</time>
      </trkpt>
      <trkpt lat="51.215595586253" lon="4.484892168892">
        <ele>0.2</ele>
        <time>2019-05-18T14:39:02Z</time>
      </trkpt>
      <trkpt lat="51.21559499952" lon="4.484965510517">
        <ele>0</ele>
        <time>2019-05-18T14:39:06Z</time>
      </trkpt>
      <trkpt lat="51.215470612124" lon="4.485318472326">
        <ele>0</ele>
        <time>2019-05-18T14:39:37Z</time>
      </trkpt>
      <trkpt lat="51.215403221648" lon="4.485281005233">
        <ele>0</ele>
        <time>2019-05-18T14:39:45Z</time>
      </trkpt>
      <trkpt lat="51.215312194214" lon="4.485268348564">
        <ele>0</ele>
        <time>2019-05-18T14:39:52Z</time>
      </trkpt>
      <trkpt lat="51.215238098218" lon="4.485279747948">
        <ele>0</ele>
        <time>2019-05-18T14:39:59Z</time>
      </trkpt>
      <trkpt lat="51.215132234821" lon="4.485179919519">
        <ele>0</ele>
        <time>2019-05-18T14:40:13Z</time>
      </trkpt>
      <trkpt lat="51.215129636432" lon="4.485149157946">
        <ele>0</ele>
        <time>2019-05-18T14:40:15Z</time>
      </trkpt>
      <trkpt lat="51.215135000848" lon="4.485026614568">
        <ele>0</ele>
        <time>2019-05-18T14:40:33Z</time>
      </trkpt>
      <trkpt lat="51.215150842639" lon="4.485076905968">
        <ele>0</ele>
        <time>2019-05-18T14:40:38Z</time>
      </trkpt>
      <trkpt lat="51.215150507363" lon="4.48512535335">
        <ele>0</ele>
        <time>2019-05-18T14:40:42Z</time>
      </trkpt>
      <trkpt lat="51.215144807671" lon="4.48515636638">
        <ele>0</ele>
        <time>2019-05-18T14:40:44Z</time>
      </trkpt>
      <trkpt lat="51.215143466567" lon="4.485223589218">
        <ele>0</ele>
        <time>2019-05-18T14:40:49Z</time>
      </trkpt>
      <trkpt lat="51.215191746311" lon="4.485260469578">
        <ele>0</ele>
        <time>2019-05-18T14:41:00Z</time>
      </trkpt>
      <trkpt lat="51.215267602506" lon="4.485240939751">
        <ele>0</ele>
        <time>2019-05-18T14:41:08Z</time>
      </trkpt>
      <trkpt lat="51.215359635768" lon="4.485255943352">
        <ele>0</ele>
        <time>2019-05-18T14:41:17Z</time>
      </trkpt>
      <trkpt lat="51.215493746168" lon="4.48527287479">
        <ele>0</ele>
        <time>2019-05-18T14:41:34Z</time>
      </trkpt>
      <trkpt lat="51.215523250456" lon="4.485353508668">
        <ele>0</ele>
        <time>2019-05-18T14:41:41Z</time>
      </trkpt>
      <trkpt lat="51.215539762799" lon="4.4854145289">
        <ele>0</ele>
        <time>2019-05-18T14:41:46Z</time>
      </trkpt>
      <trkpt lat="51.215534985116" lon="4.485661878769">
        <ele>0</ele>
        <time>2019-05-18T14:42:02Z</time>
      </trkpt>
      <trkpt lat="51.215549401984" lon="4.485890788458">
        <ele>0</ele>
        <time>2019-05-18T14:42:16Z</time>
      </trkpt>
      <trkpt lat="51.215558286798" lon="4.486279121885">
        <ele>0</ele>
        <time>2019-05-18T14:42:39Z</time>
      </trkpt>
      <trkpt lat="51.215534901297" lon="4.486731409209">
        <ele>0</ele>
        <time>2019-05-18T14:43:06Z</time>
      </trkpt>
      <trkpt lat="51.215560717549" lon="4.486793016174">
        <ele>0</ele>
        <time>2019-05-18T14:43:11Z</time>
      </trkpt>
      <trkpt lat="51.215581001747" lon="4.48685789208">
        <ele>0</ele>
        <time>2019-05-18T14:43:16Z</time>
      </trkpt>
      <trkpt lat="51.215547725604" lon="4.486859233184">
        <ele>0</ele>
        <time>2019-05-18T14:43:23Z</time>
      </trkpt>
      <trkpt lat="51.215494081444" lon="4.486158925439">
        <ele>0</ele>
        <time>2019-05-18T14:44:03Z</time>
      </trkpt>
      <trkpt lat="51.215502044249" lon="4.486088014565">
        <ele>0</ele>
        <time>2019-05-18T14:44:07Z</time>
      </trkpt>
      <trkpt lat="51.215492069788" lon="4.485637235983">
        <ele>0</ele>
        <time>2019-05-18T14:44:34Z</time>
      </trkpt>
      <trkpt lat="51.215495925462" lon="4.485451576898">
        <ele>0</ele>
        <time>2019-05-18T14:44:45Z</time>
      </trkpt>
      <trkpt lat="51.215436330153" lon="4.485284274174">
        <ele>0</ele>
        <time>2019-05-18T14:44:58Z</time>
      </trkpt>
      <trkpt lat="51.215018157162" lon="4.485233647498">
        <ele>0</ele>
        <time>2019-05-18T14:45:38Z</time>
      </trkpt>
      <trkpt lat="51.214992843824" lon="4.485207747427">
        <ele>0</ele>
        <time>2019-05-18T14:45:41Z</time>
      </trkpt>
      <trkpt lat="51.21492780028" lon="4.48510523679">
        <ele>0</ele>
        <time>2019-05-18T14:45:51Z</time>
      </trkpt>
      <trkpt lat="51.21488756716" lon="4.48509182575">
        <ele>0</ele>
        <time>2019-05-18T14:45:55Z</time>
      </trkpt>
      <trkpt lat="51.214859823071" lon="4.485089562637">
        <ele>0</ele>
        <time>2019-05-18T14:46:04Z</time>
      </trkpt>
      <trkpt lat="51.214894021223" lon="4.485072715018">
        <ele>0</ele>
        <time>2019-05-18T14:46:09Z</time>
      </trkpt>
      <trkpt lat="51.214924112244" lon="4.485085204049">
        <ele>0</ele>
        <time>2019-05-18T14:46:14Z</time>
      </trkpt>
      <trkpt lat="51.214950347591" lon="4.48509769308">
        <ele>0</ele>
        <time>2019-05-18T14:46:17Z</time>
      </trkpt>
      <trkpt lat="51.215020252637" lon="4.485133316155">
        <ele>0</ele>
        <time>2019-05-18T14:46:25Z</time>
      </trkpt>
      <trkpt lat="51.215082362516" lon="4.485081348375">
        <ele>0</ele>
        <time>2019-05-18T14:46:34Z</time>
      </trkpt>
      <trkpt lat="51.215103987818" lon="4.485057627598">
        <ele>0</ele>
        <time>2019-05-18T14:46:37Z</time>
      </trkpt>
      <trkpt lat="51.21514908244" lon="4.485050083888">
        <ele>0</ele>
        <time>2019-05-18T14:46:43Z</time>
      </trkpt>
      <trkpt lat="51.215070795494" lon="4.485051424992">
        <ele>0</ele>
        <time>2019-05-18T14:46:57Z</time>
      </trkpt>
      <trkpt lat="51.215043889595" lon="4.485166927574">
        <ele>0</ele>
        <time>2019-05-18T14:47:08Z</time>
      </trkpt>
      <trkpt lat="51.215010529633" lon="4.485157539846">
        <ele>0</ele>
        <time>2019-05-18T14:47:14Z</time>
      </trkpt>
      <trkpt lat="51.214992005634" lon="4.485129209024">
        <ele>0</ele>
        <time>2019-05-18T14:47:17Z</time>
      </trkpt>
      <trkpt lat="51.214885387866" lon="4.485089059723">
        <ele>0</ele>
        <time>2019-05-18T14:47:29Z</time>
      </trkpt>
      <trkpt lat="51.214883124753" lon="4.485078917624">
        <ele>0</ele>
        <time>2019-05-18T14:48:57Z</time>
      </trkpt>
      <trkpt lat="51.214946324279" lon="4.485093083035">
        <ele>0</ele>
        <time>2019-05-18T14:49:05Z</time>
      </trkpt>
      <trkpt lat="51.215011870737" lon="4.485170531791">
        <ele>0</ele>
        <time>2019-05-18T14:49:14Z</time>
      </trkpt>
      <trkpt lat="51.215085044724" lon="4.485267594193">
        <ele>0</ele>
        <time>2019-05-18T14:49:23Z</time>
      </trkpt>
      <trkpt lat="51.215107089121" lon="4.485275305541">
        <ele>0</ele>
        <time>2019-05-18T14:49:25Z</time>
      </trkpt>
      <trkpt lat="51.215269446524" lon="4.485277484835">
        <ele>0</ele>
        <time>2019-05-18T14:49:43Z</time>
      </trkpt>
      <trkpt lat="51.215332226955" lon="4.485246555624">
        <ele>0</ele>
        <time>2019-05-18T14:49:51Z</time>
      </trkpt>
      <trkpt lat="51.215358797578" lon="4.48527622755">
        <ele>0</ele>
        <time>2019-05-18T14:49:54Z</time>
      </trkpt>
      <trkpt lat="51.215409256616" lon="4.485350994098">
        <ele>0</ele>
        <time>2019-05-18T14:50:06Z</time>
      </trkpt>
      <trkpt lat="51.215402132001" lon="4.485379073463">
        <ele>0</ele>
        <time>2019-05-18T14:50:10Z</time>
      </trkpt>
      <trkpt lat="51.215391067893" lon="4.485444368464">
        <ele>2.8</ele>
        <time>2019-05-18T14:51:07Z</time>
      </trkpt>
      <trkpt lat="51.215427529158" lon="4.485285615278">
        <ele>0</ele>
        <time>2019-05-18T14:51:27Z</time>
      </trkpt>
      <trkpt lat="51.215452171944" lon="4.485249154013">
        <ele>0</ele>
        <time>2019-05-18T14:51:30Z</time>
      </trkpt>
      <trkpt lat="51.21548268206" lon="4.485237838448">
        <ele>0</ele>
        <time>2019-05-18T14:51:34Z</time>
      </trkpt>
      <trkpt lat="51.215547977061" lon="4.485114540699">
        <ele>0</ele>
        <time>2019-05-18T14:51:48Z</time>
      </trkpt>
      <trkpt lat="51.215574966779" lon="4.484387075598">
        <ele>3.4</ele>
        <time>2019-05-18T14:52:25Z</time>
      </trkpt>
      <trkpt lat="51.21555309002" lon="4.483672853899">
        <ele>0</ele>
        <time>2019-05-18T14:53:03Z</time>
      </trkpt>
      <trkpt lat="51.215515706746" lon="4.482951172309">
        <ele>0</ele>
        <time>2019-05-18T14:53:40Z</time>
      </trkpt>
      <trkpt lat="51.215535068935" lon="4.482274333884">
        <ele>0</ele>
        <time>2019-05-18T14:54:21Z</time>
      </trkpt>
      <trkpt lat="51.215564573223" lon="4.482265113794">
        <ele>0</ele>
        <time>2019-05-18T14:54:24Z</time>
      </trkpt>
      <trkpt lat="51.215631376966" lon="4.48229478572">
        <ele>0</ele>
        <time>2019-05-18T14:54:30Z</time>
      </trkpt>
      <trkpt lat="51.215676471588" lon="4.482306688018">
        <ele>0</ele>
        <time>2019-05-18T14:54:35Z</time>
      </trkpt>
      <trkpt lat="51.215735563983" lon="4.482307526208">
        <ele>0</ele>
        <time>2019-05-18T14:54:42Z</time>
      </trkpt>
      <trkpt lat="51.216184666185" lon="4.482345160939">
        <ele>0</ele>
        <time>2019-05-18T14:55:26Z</time>
      </trkpt>
      <trkpt lat="51.216424639982" lon="4.482304760181">
        <ele>0</ele>
        <time>2019-05-18T14:55:50Z</time>
      </trkpt>
      <trkpt lat="51.216506279688" lon="4.482300485412">
        <ele>0</ele>
        <time>2019-05-18T14:55:58Z</time>
      </trkpt>
      <trkpt lat="51.216567886653" lon="4.482296294462">
        <ele>0</ele>
        <time>2019-05-18T14:56:04Z</time>
      </trkpt>
      <trkpt lat="51.216696716456" lon="4.482267879821">
        <ele>0</ele>
        <time>2019-05-18T14:56:17Z</time>
      </trkpt>
      <trkpt lat="51.216927470163" lon="4.482220522086">
        <ele>0</ele>
        <time>2019-05-18T14:56:45Z</time>
      </trkpt>
      <trkpt lat="51.216916322236" lon="4.482241393017">
        <ele>0</ele>
        <time>2019-05-18T14:57:00Z</time>
      </trkpt>
      <trkpt lat="51.21648180454" lon="4.482399643289">
        <ele>0</ele>
        <time>2019-05-18T14:57:43Z</time>
      </trkpt>
      <trkpt lat="51.216283907881" lon="4.482396122891">
        <ele>0</ele>
        <time>2019-05-18T14:58:02Z</time>
      </trkpt>
      <trkpt lat="51.216266557348" lon="4.482396541986">
        <ele>0</ele>
        <time>2019-05-18T14:58:04Z</time>
      </trkpt>
      <trkpt lat="51.215815192033" lon="4.482359661626">
        <ele>0</ele>
        <time>2019-05-18T14:58:48Z</time>
      </trkpt>
      <trkpt lat="51.21558997038" lon="4.48228556563">
        <ele>0</ele>
        <time>2019-05-18T14:59:11Z</time>
      </trkpt>
      <trkpt lat="51.215524507741" lon="4.482414730709">
        <ele>0</ele>
        <time>2019-05-18T14:59:21Z</time>
      </trkpt>
      <trkpt lat="51.215531799994" lon="4.482709354494">
        <ele>0</ele>
        <time>2019-05-18T14:59:39Z</time>
      </trkpt>
      <trkpt lat="51.215539762799" lon="4.482813792968">
        <ele>0</ele>
        <time>2019-05-18T14:59:45Z</time>
      </trkpt>
      <trkpt lat="51.215537667324" lon="4.482856959753">
        <ele>0</ele>
        <time>2019-05-18T14:59:48Z</time>
      </trkpt>
      <trkpt lat="51.215541271541" lon="4.482889984439">
        <ele>0</ele>
        <time>2019-05-18T14:59:50Z</time>
      </trkpt>
      <trkpt lat="51.215539259885" lon="4.482979754588">
        <ele>0</ele>
        <time>2019-05-18T14:59:56Z</time>
      </trkpt>
      <trkpt lat="51.215543534654" lon="4.483044798132">
        <ele>0</ele>
        <time>2019-05-18T15:00:00Z</time>
      </trkpt>
      <trkpt lat="51.215547557966" lon="4.483071620212">
        <ele>0</ele>
        <time>2019-05-18T15:00:02Z</time>
      </trkpt>
      <trkpt lat="51.215567758345" lon="4.483565146484">
        <ele>0</ele>
        <time>2019-05-18T15:00:32Z</time>
      </trkpt>
      <trkpt lat="51.215588210181" lon="4.483737729805">
        <ele>0</ele>
        <time>2019-05-18T15:00:43Z</time>
      </trkpt>
      <trkpt lat="51.215594664244" lon="4.484238632149">
        <ele>0</ele>
        <time>2019-05-18T15:01:14Z</time>
      </trkpt>
      <trkpt lat="51.215565495232" lon="4.484949836364">
        <ele>0</ele>
        <time>2019-05-18T15:01:58Z</time>
      </trkpt>
      <trkpt lat="51.215554431124" lon="4.485143039159">
        <ele>0</ele>
        <time>2019-05-18T15:02:10Z</time>
      </trkpt>
      <trkpt lat="51.215539176066" lon="4.485209926721">
        <ele>0</ele>
        <time>2019-05-18T15:02:15Z</time>
      </trkpt>
      <trkpt lat="51.215499948774" lon="4.485244460149">
        <ele>0</ele>
        <time>2019-05-18T15:02:19Z</time>
      </trkpt>
      <trkpt lat="51.215334741525" lon="4.485230881471">
        <ele>0</ele>
        <time>2019-05-18T15:02:35Z</time>
      </trkpt>
      <trkpt lat="51.21523709239" lon="4.485252674411">
        <ele>0</ele>
        <time>2019-05-18T15:02:45Z</time>
      </trkpt>
      <trkpt lat="51.215172803217" lon="4.485253344963">
        <ele>0</ele>
        <time>2019-05-18T15:02:52Z</time>
      </trkpt>
      <trkpt lat="51.215099545411" lon="4.485148738851">
        <ele>0</ele>
        <time>2019-05-18T15:03:05Z</time>
      </trkpt>
      <trkpt lat="51.215019665904" lon="4.485153600353">
        <ele>0</ele>
        <time>2019-05-18T15:03:13Z</time>
      </trkpt>
      <trkpt lat="51.215006506321" lon="4.48514714629">
        <ele>0</ele>
        <time>2019-05-18T15:03:15Z</time>
      </trkpt>
      <trkpt lat="51.214973230178" lon="4.485126778273">
        <ele>0</ele>
        <time>2019-05-18T15:03:21Z</time>
      </trkpt>
      <trkpt lat="51.214904079503" lon="4.485087467162">
        <ele>0</ele>
        <time>2019-05-18T15:03:33Z</time>
      </trkpt>
      <trkpt lat="51.214903241313" lon="4.485085287868">
        <ele>0</ele>
        <time>2019-05-18T15:03:43Z</time>
      </trkpt>
      <trkpt lat="51.214939954035" lon="4.485093837406">
        <ele>0</ele>
        <time>2019-05-18T15:05:08Z</time>
      </trkpt>
      <trkpt lat="51.214940289311" lon="4.485064500756">
        <ele>0</ele>
        <time>2019-05-18T15:05:21Z</time>
      </trkpt>
      <trkpt lat="51.21498647358" lon="4.485098279813">
        <ele>0</ele>
        <time>2019-05-18T15:05:28Z</time>
      </trkpt>
      <trkpt lat="51.215036932618" lon="4.48516558647">
        <ele>0</ele>
        <time>2019-05-18T15:05:39Z</time>
      </trkpt>
      <trkpt lat="51.215107675854" lon="4.485064416937">
        <ele>0</ele>
        <time>2019-05-18T15:06:05Z</time>
      </trkpt>
      <trkpt lat="51.215165091869" lon="4.485265666356">
        <ele>0</ele>
        <time>2019-05-18T15:06:23Z</time>
      </trkpt>
      <trkpt lat="51.215137096323" lon="4.485276311369">
        <ele>0</ele>
        <time>2019-05-18T15:06:43Z</time>
      </trkpt>
      <trkpt lat="51.215043889595" lon="4.485229540367">
        <ele>0</ele>
        <time>2019-05-18T15:07:11Z</time>
      </trkpt>
      <trkpt lat="51.215097785212" lon="4.485260469578">
        <ele>0</ele>
        <time>2019-05-18T15:07:17Z</time>
      </trkpt>
      <trkpt lat="51.215229464861" lon="4.485247561452">
        <ele>0</ele>
        <time>2019-05-18T15:07:30Z</time>
      </trkpt>
      <trkpt lat="51.215367933849" lon="4.485248651099">
        <ele>0</ele>
        <time>2019-05-18T15:07:44Z</time>
      </trkpt>
      <trkpt lat="51.215395761757" lon="4.485306486209">
        <ele>0</ele>
        <time>2019-05-18T15:07:51Z</time>
      </trkpt>
      <trkpt lat="51.215402383458" lon="4.485362142025">
        <ele>0</ele>
        <time>2019-05-18T15:07:55Z</time>
      </trkpt>
      <trkpt lat="51.21538377564" lon="4.485387623001">
        <ele>0</ele>
        <time>2019-05-18T15:11:56Z</time>
      </trkpt>
      <trkpt lat="51.215384697649" lon="4.485368176993">
        <ele>0</ele>
        <time>2019-05-18T15:11:57Z</time>
      </trkpt>
      <trkpt lat="51.215344129253" lon="4.485255524257">
        <ele>0</ele>
        <time>2019-05-18T15:12:08Z</time>
      </trkpt>
      <trkpt lat="51.215282773745" lon="4.485241358846">
        <ele>0</ele>
        <time>2019-05-18T15:12:17Z</time>
      </trkpt>
      <trkpt lat="51.215115387202" lon="4.485199784622">
        <ele>0</ele>
        <time>2019-05-18T15:12:48Z</time>
      </trkpt>
      <trkpt lat="51.215053361142" lon="4.48513708801">
        <ele>0</ele>
        <time>2019-05-18T15:12:58Z</time>
      </trkpt>
      <trkpt lat="51.215078842118" lon="4.485264073795">
        <ele>0</ele>
        <time>2019-05-18T15:13:29Z</time>
      </trkpt>
      <trkpt lat="51.215109436053" lon="4.485281591966">
        <ele>0</ele>
        <time>2019-05-18T15:13:36Z</time>
      </trkpt>
      <trkpt lat="51.215141371092" lon="4.485285028545">
        <ele>0</ele>
        <time>2019-05-18T15:13:40Z</time>
      </trkpt>
      <trkpt lat="51.215313954413" lon="4.485263738519">
        <ele>0</ele>
        <time>2019-05-18T15:14:08Z</time>
      </trkpt>
      <trkpt lat="51.215347901108" lon="4.485285363821">
        <ele>0</ele>
        <time>2019-05-18T15:14:21Z</time>
      </trkpt>
      <trkpt lat="51.215340776493" lon="4.485266923641">
        <ele>0</ele>
        <time>2019-05-18T15:15:11Z</time>
      </trkpt>
      <trkpt lat="51.215324012693" lon="4.485254686067">
        <ele>0</ele>
        <time>2019-05-18T15:15:13Z</time>
      </trkpt>
      <trkpt lat="51.215247737403" lon="4.485239850104">
        <ele>0</ele>
        <time>2019-05-18T15:15:30Z</time>
      </trkpt>
      <trkpt lat="51.215195853442" lon="4.485220487915">
        <ele>0</ele>
        <time>2019-05-18T15:15:37Z</time>
      </trkpt>
      <trkpt lat="51.215164672774" lon="4.485195174577">
        <ele>0</ele>
        <time>2019-05-18T15:15:42Z</time>
      </trkpt>
      <trkpt lat="51.215138605065" lon="4.485181763537">
        <ele>0</ele>
        <time>2019-05-18T15:15:46Z</time>
      </trkpt>
      <trkpt lat="51.215130977536" lon="4.485143709711">
        <ele>0</ele>
        <time>2019-05-18T15:16:00Z</time>
      </trkpt>
      <trkpt lat="51.214936601275" lon="4.485128035558">
        <ele>0</ele>
        <time>2019-05-18T15:38:15Z</time>
      </trkpt>
      <trkpt lat="51.21501161928" lon="4.485151001964">
        <ele>0</ele>
        <time>2019-05-18T15:38:21Z</time>
      </trkpt>
      <trkpt lat="51.215026287605" lon="4.485167933402">
        <ele>0</ele>
        <time>2019-05-18T15:38:23Z</time>
      </trkpt>
      <trkpt lat="51.215090995873" lon="4.485270444039">
        <ele>0</ele>
        <time>2019-05-18T15:38:36Z</time>
      </trkpt>
      <trkpt lat="51.215302974124" lon="4.485191989455">
        <ele>0</ele>
        <time>2019-05-18T15:39:10Z</time>
      </trkpt>
      <trkpt lat="51.215351756782" lon="4.485269186754">
        <ele>0</ele>
        <time>2019-05-18T15:41:28Z</time>
      </trkpt>
      <trkpt lat="51.215391403169" lon="4.485301792345">
        <ele>0</ele>
        <time>2019-05-18T15:41:32Z</time>
      </trkpt>
      <trkpt lat="51.215401293811" lon="4.485371948848">
        <ele>0</ele>
        <time>2019-05-18T15:41:37Z</time>
      </trkpt>
      <trkpt lat="51.215378159767" lon="4.485392568322">
        <ele>0</ele>
        <time>2019-05-18T15:43:52Z</time>
      </trkpt>
      <trkpt lat="51.215377405396" lon="4.485309587512">
        <ele>0</ele>
        <time>2019-05-18T15:43:59Z</time>
      </trkpt>
      <trkpt lat="51.21533935157" lon="4.485246387986">
        <ele>0</ele>
        <time>2019-05-18T15:44:05Z</time>
      </trkpt>
      <trkpt lat="51.215301716839" lon="4.485188301419">
        <ele>0</ele>
        <time>2019-05-18T15:44:16Z</time>
      </trkpt>
      <trkpt lat="51.214873401749" lon="4.485688700849">
        <ele>0</ele>
        <time>2019-05-18T16:39:06Z</time>
      </trkpt>
      <trkpt lat="51.21527313456" lon="4.485329704072">
        <ele>21.2</ele>
        <time>2019-05-18T16:39:10Z</time>
      </trkpt>
      <trkpt lat="51.215235332191" lon="4.485228031625">
        <ele>10.8</ele>
        <time>2019-05-18T16:39:22Z</time>
      </trkpt>
      <trkpt lat="51.215090157683" lon="4.485234904783">
        <ele>12.4</ele>
        <time>2019-05-18T16:39:28Z</time>
      </trkpt>
      <trkpt lat="51.214941630415" lon="4.485276311369">
        <ele>16.6</ele>
        <time>2019-05-18T16:39:49Z</time>
      </trkpt>
      <trkpt lat="51.215040201559" lon="4.485253847877">
        <ele>14</ele>
        <time>2019-05-18T16:40:57Z</time>
      </trkpt>
      <trkpt lat="51.215032909306" lon="4.485128622291">
        <ele>12.6</ele>
        <time>2019-05-18T16:41:09Z</time>
      </trkpt>
      <trkpt lat="51.215051181848" lon="4.485111355577">
        <ele>12</ele>
        <time>2019-05-18T16:41:11Z</time>
      </trkpt>
      <trkpt lat="51.215133911201" lon="4.485233312222">
        <ele>8.8</ele>
        <time>2019-05-18T16:41:26Z</time>
      </trkpt>
      <trkpt lat="51.215149501535" lon="4.485263822338">
        <ele>8.6</ele>
        <time>2019-05-18T16:41:28Z</time>
      </trkpt>
      <trkpt lat="51.215248743231" lon="4.485261726863">
        <ele>5.8</ele>
        <time>2019-05-18T16:41:42Z</time>
      </trkpt>
      <trkpt lat="51.215294676043" lon="4.485250914212">
        <ele>3.2</ele>
        <time>2019-05-18T16:41:56Z</time>
      </trkpt>
      <trkpt lat="51.215279085709" lon="4.485268516202">
        <ele>2.4</ele>
        <time>2019-05-18T16:42:05Z</time>
      </trkpt>
      <trkpt lat="51.215339435389" lon="4.485174722741">
        <ele>0.2</ele>
        <time>2019-05-18T16:48:45Z</time>
      </trkpt>
      <trkpt lat="51.215367095659" lon="4.485107835179">
        <ele>0.4</ele>
        <time>2019-05-18T16:48:52Z</time>
      </trkpt>
      <trkpt lat="51.215370783695" lon="4.48524605271">
        <ele>0</ele>
        <time>2019-05-18T17:01:36Z</time>
      </trkpt>
      <trkpt lat="51.215501289878" lon="4.485172040533">
        <ele>0</ele>
        <time>2019-05-18T17:01:49Z</time>
      </trkpt>
      <trkpt lat="51.215524088646" lon="4.485064249299">
        <ele>0</ele>
        <time>2019-05-18T17:01:57Z</time>
      </trkpt>
      <trkpt lat="51.21554973726" lon="4.484353045084">
        <ele>0</ele>
        <time>2019-05-18T17:02:37Z</time>
      </trkpt>
      <trkpt lat="51.215550491631" lon="4.484300825847">
        <ele>0</ele>
        <time>2019-05-18T17:02:40Z</time>
      </trkpt>
      <trkpt lat="51.215543283197" lon="4.483580652999">
        <ele>0</ele>
        <time>2019-05-18T17:03:25Z</time>
      </trkpt>
      <trkpt lat="51.215538421695" lon="4.483307905973">
        <ele>0</ele>
        <time>2019-05-18T17:03:42Z</time>
      </trkpt>
      <trkpt lat="51.21554219355" lon="4.483120067594">
        <ele>0.2</ele>
        <time>2019-05-18T17:03:53Z</time>
      </trkpt>
      <trkpt lat="51.215529201605" lon="4.48276249574">
        <ele>2.2</ele>
        <time>2019-05-18T17:04:14Z</time>
      </trkpt>
      <trkpt lat="51.215528698691" lon="4.482554121706">
        <ele>2.2</ele>
        <time>2019-05-18T17:04:27Z</time>
      </trkpt>
      <trkpt lat="51.215517550764" lon="4.482383885317">
        <ele>2.4</ele>
        <time>2019-05-18T17:04:38Z</time>
      </trkpt>
      <trkpt lat="51.215582845765" lon="4.482308364398">
        <ele>1.6</ele>
        <time>2019-05-18T17:04:48Z</time>
      </trkpt>
      <trkpt lat="51.216032618519" lon="4.482358991074">
        <ele>0</ele>
        <time>2019-05-18T17:05:27Z</time>
      </trkpt>
      <trkpt lat="51.216471075708" lon="4.482309789321">
        <ele>0</ele>
        <time>2019-05-18T17:06:07Z</time>
      </trkpt>
      <trkpt lat="51.216512147018" lon="4.482297216471">
        <ele>0</ele>
        <time>2019-05-18T17:06:12Z</time>
      </trkpt>
      <trkpt lat="51.216945994162" lon="4.482234268402">
        <ele>0</ele>
        <time>2019-05-18T17:06:52Z</time>
      </trkpt>
      <trkpt lat="51.216950268931" lon="4.482298222299">
        <ele>0</ele>
        <time>2019-05-18T17:06:55Z</time>
      </trkpt>
      <trkpt lat="51.216950436569" lon="4.482414982166">
        <ele>0</ele>
        <time>2019-05-18T17:07:18Z</time>
      </trkpt>
      <trkpt lat="51.216940545927" lon="4.482390758475">
        <ele>0</ele>
        <time>2019-05-18T17:07:20Z</time>
      </trkpt>
      <trkpt lat="51.216974492622" lon="4.482375922512">
        <ele>0</ele>
        <time>2019-05-18T17:07:45Z</time>
      </trkpt>
      <trkpt lat="51.217362574592" lon="4.482040646512">
        <ele>0</ele>
        <time>2019-05-18T17:08:33Z</time>
      </trkpt>
      <trkpt lat="51.217801702333" lon="4.481872421779">
        <ele>0</ele>
        <time>2019-05-18T17:09:12Z</time>
      </trkpt>
      <trkpt lat="51.218217947487" lon="4.481612079965">
        <ele>0</ele>
        <time>2019-05-18T17:09:51Z</time>
      </trkpt>
      <trkpt lat="51.218652381364" lon="4.481390713986">
        <ele>2</ele>
        <time>2019-05-18T17:10:30Z</time>
      </trkpt>
      <trkpt lat="51.218719688021" lon="4.481346373735">
        <ele>1.6</ele>
        <time>2019-05-18T17:10:37Z</time>
      </trkpt>
      <trkpt lat="51.21876838686" lon="4.48132080894">
        <ele>1.2</ele>
        <time>2019-05-18T17:10:42Z</time>
      </trkpt>
      <trkpt lat="51.218970306831" lon="4.481207904747">
        <ele>0</ele>
        <time>2019-05-18T17:11:00Z</time>
      </trkpt>
      <trkpt lat="51.219411865323" lon="4.481076979469">
        <ele>0</ele>
        <time>2019-05-18T17:11:42Z</time>
      </trkpt>
      <trkpt lat="51.219452098443" lon="4.481066502094">
        <ele>0</ele>
        <time>2019-05-18T17:11:46Z</time>
      </trkpt>
      <trkpt lat="51.219557375107" lon="4.481114278924">
        <ele>3.8</ele>
        <time>2019-05-18T17:12:11Z</time>
      </trkpt>
      <trkpt lat="51.219871025805" lon="4.480841950993">
        <ele>1.6</ele>
        <time>2019-05-18T17:12:51Z</time>
      </trkpt>
      <trkpt lat="51.220216946818" lon="4.480477086886">
        <ele>0.2</ele>
        <time>2019-05-18T17:13:27Z</time>
      </trkpt>
      <trkpt lat="51.22066856359" lon="4.480367870729">
        <ele>0</ele>
        <time>2019-05-18T17:14:07Z</time>
      </trkpt>
      <trkpt lat="51.221113139566" lon="4.480213224674">
        <ele>0</ele>
        <time>2019-05-18T17:14:43Z</time>
      </trkpt>
      <trkpt lat="51.221543047217" lon="4.480062518112">
        <ele>0</ele>
        <time>2019-05-18T17:15:22Z</time>
      </trkpt>
      <trkpt lat="51.221564253424" lon="4.480100069024">
        <ele>0</ele>
        <time>2019-05-18T17:15:24Z</time>
      </trkpt>
      <trkpt lat="51.221591997513" lon="4.480205680964">
        <ele>0</ele>
        <time>2019-05-18T17:15:33Z</time>
      </trkpt>
      <trkpt lat="51.221667183156" lon="4.480288913231">
        <ele>0</ele>
        <time>2019-05-18T17:15:42Z</time>
      </trkpt>
      <trkpt lat="51.221702806231" lon="4.480415228464">
        <ele>2.8</ele>
        <time>2019-05-18T17:15:52Z</time>
      </trkpt>
      <trkpt lat="51.221805400687" lon="4.480546824294">
        <ele>11.4</ele>
        <time>2019-05-18T17:16:04Z</time>
      </trkpt>
      <trkpt lat="51.221995083084" lon="4.480748660446">
        <ele>26.2</ele>
        <time>2019-05-18T17:16:19Z</time>
      </trkpt>
      <trkpt lat="51.222137743022" lon="4.480940857413">
        <ele>29.4</ele>
        <time>2019-05-18T17:16:33Z</time>
      </trkpt>
      <trkpt lat="51.222272356336" lon="4.481089803776">
        <ele>25</ele>
        <time>2019-05-18T17:16:49Z</time>
      </trkpt>
      <trkpt lat="51.222283839539" lon="4.481027945354">
        <ele>20</ele>
        <time>2019-05-18T17:16:55Z</time>
      </trkpt>
      <trkpt lat="51.222311080714" lon="4.480936834101">
        <ele>15.2</ele>
        <time>2019-05-18T17:17:00Z</time>
      </trkpt>
      <trkpt lat="51.22235835463" lon="4.480862905743">
        <ele>8.4</ele>
        <time>2019-05-18T17:17:07Z</time>
      </trkpt>
      <trkpt lat="51.22265591208" lon="4.481028867363">
        <ele>6.8</ele>
        <time>2019-05-18T17:17:36Z</time>
      </trkpt>
      <trkpt lat="51.222699665598" lon="4.48112215791">
        <ele>5.8</ele>
        <time>2019-05-18T17:17:43Z</time>
      </trkpt>
    </trkseg>
  </trk>
</gpx>